sensor_id;sensor_type;location;lat;lon;timestamp;temperature;humidity
16663;DHT22;8445;51.270;9.434;2022-10-31T00:00:20;11.70;99.90
16663;DHT22;8445;51.270;9.434;2022-10-31T00:02:46;11.70;99.90
16663;DHT22;8445;51.270;9.434;2022-10-31T00:05:12;11.70;99.90
16663;DHT22;8445;51.270;9.434;2022-10-31T00:07:38;11.80;99.90
16663;DHT22;8445;51.270;9.434;2022-10-31T00:10:04;11.80;99.90
16663;DHT22;8445;51.270;9.434;2022-10-31T00:12:31;11.80;99.90
16663;DHT22;8445;51.270;9.434;2022-10-31T00:14:56;11.80;99.90
16663;DHT22;8445;51.270;9.434;2022-10-31T00:17:22;11.80;99.90
16663;DHT22;8445;51.270;9.434;2022-10-31T00:19:48;11.70;99.90
16663;DHT22;8445;51.270;9.434;2022-10-31T00:22:14;11.70;99.90
16663;DHT22;8445;51.270;9.434;2022-10-31T00:24:41;11.60;99.90
16663;DHT22;8445;51.270;9.434;2022-10-31T00:27:11;11.60;99.90
16663;DHT22;8445;51.270;9.434;2022-10-31T00:29:39;11.50;99.90
16663;DHT22;8445;51.270;9.434;2022-10-31T00:32:13;11.40;99.90
16663;DHT22;8445;51.270;9.434;2022-10-31T00:34:42;11.40;99.90
16663;DHT22;8445;51.270;9.434;2022-10-31T00:37:08;11.30;99.90
16663;DHT22;8445;51.270;9.434;2022-10-31T00:39:34;11.30;99.90
16663;DHT22;8445;51.270;9.434;2022-10-31T00:42:00;11.30;99.90
16663;DHT22;8445;51.270;9.434;2022-10-31T00:44:26;11.20;99.90
16663;DHT22;8445;51.270;9.434;2022-10-31T00:46:52;11.10;99.90
16663;DHT22;8445;51.270;9.434;2022-10-31T00:49:21;11.10;99.90
16663;DHT22;8445;51.270;9.434;2022-10-31T00:51:46;11.00;99.90
16663;DHT22;8445;51.270;9.434;2022-10-31T00:54:12;10.90;99.90
16663;DHT22;8445;51.270;9.434;2022-10-31T00:56:38;10.80;99.90
16663;DHT22;8445;51.270;9.434;2022-10-31T00:59:04;10.70;99.90
16663;DHT22;8445;51.270;9.434;2022-10-31T01:01:30;10.60;99.90
16663;DHT22;8445;51.270;9.434;2022-10-31T01:03:56;10.60;99.90
16663;DHT22;8445;51.270;9.434;2022-10-31T01:06:22;10.50;99.90
16663;DHT22;8445;51.270;9.434;2022-10-31T01:08:50;10.50;99.90
16663;DHT22;8445;51.270;9.434;2022-10-31T01:11:22;10.40;99.90
16663;DHT22;8445;51.270;9.434;2022-10-31T01:13:54;10.40;99.90
16663;DHT22;8445;51.270;9.434;2022-10-31T01:16:26;10.40;99.90
16663;DHT22;8445;51.270;9.434;2022-10-31T01:18:57;10.30;99.90
16663;DHT22;8445;51.270;9.434;2022-10-31T01:21:28;10.30;99.90
16663;DHT22;8445;51.270;9.434;2022-10-31T01:23:57;10.40;99.90
16663;DHT22;8445;51.270;9.434;2022-10-31T01:26:26;10.30;99.90
16663;DHT22;8445;51.270;9.434;2022-10-31T01:29:05;10.30;99.90
16663;DHT22;8445;51.270;9.434;2022-10-31T01:31:36;10.30;99.90
16663;DHT22;8445;51.270;9.434;2022-10-31T01:34:04;10.20;99.90
16663;DHT22;8445;51.270;9.434;2022-10-31T01:36:32;10.20;99.90
16663;DHT22;8445;51.270;9.434;2022-10-31T01:39:04;10.10;99.90
16663;DHT22;8445;51.270;9.434;2022-10-31T01:41:37;10.10;99.90
16663;DHT22;8445;51.270;9.434;2022-10-31T01:47:05;10.10;99.90
16663;DHT22;8445;51.270;9.434;2022-10-31T01:49:47;10.10;99.90
16663;DHT22;8445;51.270;9.434;2022-10-31T01:52:26;10.10;99.90
16663;DHT22;8445;51.270;9.434;2022-10-31T01:54:59;10.10;99.90
16663;DHT22;8445;51.270;9.434;2022-10-31T01:57:34;10.00;99.90
16663;DHT22;8445;51.270;9.434;2022-10-31T02:00:10;10.00;99.90
16663;DHT22;8445;51.270;9.434;2022-10-31T02:02:40;9.90;99.90
16663;DHT22;8445;51.270;9.434;2022-10-31T02:05:12;9.90;99.90
16663;DHT22;8445;51.270;9.434;2022-10-31T02:08:05;9.80;99.90
16663;DHT22;8445;51.270;9.434;2022-10-31T02:10:40;9.70;99.90
16663;DHT22;8445;51.270;9.434;2022-10-31T02:13:11;9.70;99.90
16663;DHT22;8445;51.270;9.434;2022-10-31T02:15:46;9.60;99.90
16663;DHT22;8445;51.270;9.434;2022-10-31T02:18:15;9.60;99.90
16663;DHT22;8445;51.270;9.434;2022-10-31T02:33:14;9.70;99.90
16663;DHT22;8445;51.270;9.434;2022-10-31T02:38:29;9.70;99.90
16663;DHT22;8445;51.270;9.434;2022-10-31T02:41:27;9.70;99.90
16663;DHT22;8445;51.270;9.434;2022-10-31T02:47:18;9.70;99.90
16663;DHT22;8445;51.270;9.434;2022-10-31T02:50:02;9.60;99.90
16663;DHT22;8445;51.270;9.434;2022-10-31T02:52:34;9.50;99.90
16663;DHT22;8445;51.270;9.434;2022-10-31T02:58:10;9.50;99.90
16663;DHT22;8445;51.270;9.434;2022-10-31T03:04:31;9.40;99.90
16663;DHT22;8445;51.270;9.434;2022-10-31T03:07:32;9.40;99.90
16663;DHT22;8445;51.270;9.434;2022-10-31T03:16:18;9.20;99.90
16663;DHT22;8445;51.270;9.434;2022-10-31T03:19:09;9.20;99.90
16663;DHT22;8445;51.270;9.434;2022-10-31T03:21:47;9.20;99.90
16663;DHT22;8445;51.270;9.434;2022-10-31T03:24:23;9.20;99.90
16663;DHT22;8445;51.270;9.434;2022-10-31T03:26:55;9.10;99.90
16663;DHT22;8445;51.270;9.434;2022-10-31T03:29:28;9.10;99.90
16663;DHT22;8445;51.270;9.434;2022-10-31T03:32:15;9.00;99.90
16663;DHT22;8445;51.270;9.434;2022-10-31T03:34:46;8.90;99.90
16663;DHT22;8445;51.270;9.434;2022-10-31T03:37:18;8.80;99.90
16663;DHT22;8445;51.270;9.434;2022-10-31T03:39:48;8.80;99.90
16663;DHT22;8445;51.270;9.434;2022-10-31T03:42:26;8.80;99.90
16663;DHT22;8445;51.270;9.434;2022-10-31T03:45:20;8.70;99.90
16663;DHT22;8445;51.270;9.434;2022-10-31T03:47:48;8.70;99.90
16663;DHT22;8445;51.270;9.434;2022-10-31T03:50:15;8.80;99.90
16663;DHT22;8445;51.270;9.434;2022-10-31T03:55:19;8.80;99.90
16663;DHT22;8445;51.270;9.434;2022-10-31T03:58:10;8.90;99.90
16663;DHT22;8445;51.270;9.434;2022-10-31T04:00:46;9.00;99.90
16663;DHT22;8445;51.270;9.434;2022-10-31T04:03:21;9.00;99.90
16663;DHT22;8445;51.270;9.434;2022-10-31T04:05:54;9.00;99.90
16663;DHT22;8445;51.270;9.434;2022-10-31T04:08:28;9.00;99.90
16663;DHT22;8445;51.270;9.434;2022-10-31T04:10:59;9.10;99.90
16663;DHT22;8445;51.270;9.434;2022-10-31T04:13:29;9.10;99.90
16663;DHT22;8445;51.270;9.434;2022-10-31T04:16:04;9.10;99.90
16663;DHT22;8445;51.270;9.434;2022-10-31T04:18:32;9.10;99.90
16663;DHT22;8445;51.270;9.434;2022-10-31T04:21:06;9.10;99.90
16663;DHT22;8445;51.270;9.434;2022-10-31T04:23:35;9.00;99.90
16663;DHT22;8445;51.270;9.434;2022-10-31T04:26:11;9.00;99.90
16663;DHT22;8445;51.270;9.434;2022-10-31T04:28:37;9.00;99.90
16663;DHT22;8445;51.270;9.434;2022-10-31T04:31:04;9.00;99.90
16663;DHT22;8445;51.270;9.434;2022-10-31T04:33:34;9.00;99.90
16663;DHT22;8445;51.270;9.434;2022-10-31T04:36:01;9.00;99.90
16663;DHT22;8445;51.270;9.434;2022-10-31T04:38:27;9.10;99.90
16663;DHT22;8445;51.270;9.434;2022-10-31T04:40:53;9.20;99.90
16663;DHT22;8445;51.270;9.434;2022-10-31T04:43:38;9.20;99.90
16663;DHT22;8445;51.270;9.434;2022-10-31T04:46:04;9.30;99.90
16663;DHT22;8445;51.270;9.434;2022-10-31T04:48:31;9.30;99.90
16663;DHT22;8445;51.270;9.434;2022-10-31T04:51:00;9.30;99.90
16663;DHT22;8445;51.270;9.434;2022-10-31T04:53:27;9.40;99.90
16663;DHT22;8445;51.270;9.434;2022-10-31T04:56:16;9.40;99.90
16663;DHT22;8445;51.270;9.434;2022-10-31T04:58:45;9.30;99.90
16663;DHT22;8445;51.270;9.434;2022-10-31T05:01:11;9.20;99.90
16663;DHT22;8445;51.270;9.434;2022-10-31T05:03:38;9.10;99.90
16663;DHT22;8445;51.270;9.434;2022-10-31T05:06:06;9.10;99.90
16663;DHT22;8445;51.270;9.434;2022-10-31T05:08:32;9.00;99.90
16663;DHT22;8445;51.270;9.434;2022-10-31T05:11:02;9.00;99.90
16663;DHT22;8445;51.270;9.434;2022-10-31T05:13:29;8.90;99.90
16663;DHT22;8445;51.270;9.434;2022-10-31T05:16:13;8.80;99.90
16663;DHT22;8445;51.270;9.434;2022-10-31T05:19:05;8.80;99.90
16663;DHT22;8445;51.270;9.434;2022-10-31T05:22:03;8.70;99.90
16663;DHT22;8445;51.270;9.434;2022-10-31T05:24:31;8.70;99.90
16663;DHT22;8445;51.270;9.434;2022-10-31T05:26:57;8.60;99.90
16663;DHT22;8445;51.270;9.434;2022-10-31T05:29:23;8.50;99.90
16663;DHT22;8445;51.270;9.434;2022-10-31T05:31:49;8.50;99.90
16663;DHT22;8445;51.270;9.434;2022-10-31T05:34:35;8.40;99.90
16663;DHT22;8445;51.270;9.434;2022-10-31T05:37:14;8.40;99.90
16663;DHT22;8445;51.270;9.434;2022-10-31T05:39:41;8.40;99.90
16663;DHT22;8445;51.270;9.434;2022-10-31T05:42:12;8.30;99.90
16663;DHT22;8445;51.270;9.434;2022-10-31T05:44:39;8.30;99.90
16663;DHT22;8445;51.270;9.434;2022-10-31T05:47:16;8.30;99.90
16663;DHT22;8445;51.270;9.434;2022-10-31T05:50:09;8.40;99.90
16663;DHT22;8445;51.270;9.434;2022-10-31T05:53:03;8.40;99.90
16663;DHT22;8445;51.270;9.434;2022-10-31T05:55:35;8.30;99.90
16663;DHT22;8445;51.270;9.434;2022-10-31T05:58:13;8.30;99.90
16663;DHT22;8445;51.270;9.434;2022-10-31T06:00:43;8.30;99.90
16663;DHT22;8445;51.270;9.434;2022-10-31T06:03:10;8.30;99.90
16663;DHT22;8445;51.270;9.434;2022-10-31T06:05:46;8.30;99.90
16663;DHT22;8445;51.270;9.434;2022-10-31T06:08:13;8.30;99.90
16663;DHT22;8445;51.270;9.434;2022-10-31T06:10:40;8.30;99.90
16663;DHT22;8445;51.270;9.434;2022-10-31T06:13:06;8.30;99.90
16663;DHT22;8445;51.270;9.434;2022-10-31T06:15:49;8.30;99.90
16663;DHT22;8445;51.270;9.434;2022-10-31T06:18:19;8.20;99.90
16663;DHT22;8445;51.270;9.434;2022-10-31T06:20:47;8.20;99.90
16663;DHT22;8445;51.270;9.434;2022-10-31T06:23:13;8.20;99.90
16663;DHT22;8445;51.270;9.434;2022-10-31T06:25:41;8.20;99.90
16663;DHT22;8445;51.270;9.434;2022-10-31T06:28:09;8.30;99.90
16663;DHT22;8445;51.270;9.434;2022-10-31T06:30:46;8.30;99.90
16663;DHT22;8445;51.270;9.434;2022-10-31T06:33:12;8.30;99.90
16663;DHT22;8445;51.270;9.434;2022-10-31T06:35:46;8.40;99.90
16663;DHT22;8445;51.270;9.434;2022-10-31T06:38:13;8.40;99.90
16663;DHT22;8445;51.270;9.434;2022-10-31T06:40:41;8.50;99.90
16663;DHT22;8445;51.270;9.434;2022-10-31T06:43:20;8.50;99.90
16663;DHT22;8445;51.270;9.434;2022-10-31T06:45:47;8.60;99.90
16663;DHT22;8445;51.270;9.434;2022-10-31T06:48:21;8.70;99.90
16663;DHT22;8445;51.270;9.434;2022-10-31T06:51:19;8.80;99.90
16663;DHT22;8445;51.270;9.434;2022-10-31T06:53:48;8.90;99.90
16663;DHT22;8445;51.270;9.434;2022-10-31T06:56:15;8.90;99.90
16663;DHT22;8445;51.270;9.434;2022-10-31T06:58:50;9.00;99.90
16663;DHT22;8445;51.270;9.434;2022-10-31T07:01:21;9.10;99.90
16663;DHT22;8445;51.270;9.434;2022-10-31T07:03:47;9.20;99.90
16663;DHT22;8445;51.270;9.434;2022-10-31T07:06:13;9.20;99.90
16663;DHT22;8445;51.270;9.434;2022-10-31T07:08:39;9.30;99.90
16663;DHT22;8445;51.270;9.434;2022-10-31T07:11:06;9.40;99.90
16663;DHT22;8445;51.270;9.434;2022-10-31T07:13:33;9.50;99.90
16663;DHT22;8445;51.270;9.434;2022-10-31T07:16:08;9.50;99.90
16663;DHT22;8445;51.270;9.434;2022-10-31T07:18:37;9.60;99.90
16663;DHT22;8445;51.270;9.434;2022-10-31T07:21:04;9.70;99.90
16663;DHT22;8445;51.270;9.434;2022-10-31T07:23:31;9.70;99.90
16663;DHT22;8445;51.270;9.434;2022-10-31T07:26:16;9.90;99.90
16663;DHT22;8445;51.270;9.434;2022-10-31T07:28:48;10.00;99.90
16663;DHT22;8445;51.270;9.434;2022-10-31T07:31:16;10.10;99.90
16663;DHT22;8445;51.270;9.434;2022-10-31T07:33:42;10.10;99.90
16663;DHT22;8445;51.270;9.434;2022-10-31T07:36:26;10.20;99.90
16663;DHT22;8445;51.270;9.434;2022-10-31T07:38:56;10.30;99.90
16663;DHT22;8445;51.270;9.434;2022-10-31T07:41:23;10.40;99.90
16663;DHT22;8445;51.270;9.434;2022-10-31T07:43:50;10.40;99.90
16663;DHT22;8445;51.270;9.434;2022-10-31T07:46:16;10.50;99.90
16663;DHT22;8445;51.270;9.434;2022-10-31T07:48:42;10.50;99.90
16663;DHT22;8445;51.270;9.434;2022-10-31T07:51:26;10.60;99.90
16663;DHT22;8445;51.270;9.434;2022-10-31T07:53:55;10.70;99.90
16663;DHT22;8445;51.270;9.434;2022-10-31T07:56:24;10.80;99.90
16663;DHT22;8445;51.270;9.434;2022-10-31T07:58:51;10.90;99.90
16663;DHT22;8445;51.270;9.434;2022-10-31T08:01:17;11.10;99.90
16663;DHT22;8445;51.270;9.434;2022-10-31T08:03:54;11.20;99.90
16663;DHT22;8445;51.270;9.434;2022-10-31T08:06:59;11.30;99.90
16663;DHT22;8445;51.270;9.434;2022-10-31T08:09:30;11.50;99.90
16663;DHT22;8445;51.270;9.434;2022-10-31T08:11:59;11.60;99.90
16663;DHT22;8445;51.270;9.434;2022-10-31T08:14:25;11.70;99.90
16663;DHT22;8445;51.270;9.434;2022-10-31T08:16:52;11.80;99.90
16663;DHT22;8445;51.270;9.434;2022-10-31T08:19:19;11.90;99.90
16663;DHT22;8445;51.270;9.434;2022-10-31T08:21:45;12.00;99.90
16663;DHT22;8445;51.270;9.434;2022-10-31T08:24:11;12.10;99.90
16663;DHT22;8445;51.270;9.434;2022-10-31T08:26:39;12.20;99.90
16663;DHT22;8445;51.270;9.434;2022-10-31T08:29:07;12.30;99.90
16663;DHT22;8445;51.270;9.434;2022-10-31T08:31:35;12.40;99.90
16663;DHT22;8445;51.270;9.434;2022-10-31T08:34:20;12.50;99.90
16663;DHT22;8445;51.270;9.434;2022-10-31T08:37:05;12.70;99.90
16663;DHT22;8445;51.270;9.434;2022-10-31T08:39:39;12.90;99.90
16663;DHT22;8445;51.270;9.434;2022-10-31T08:42:05;13.00;99.90
16663;DHT22;8445;51.270;9.434;2022-10-31T08:44:31;13.10;99.90
16663;DHT22;8445;51.270;9.434;2022-10-31T08:46:57;13.10;99.90
16663;DHT22;8445;51.270;9.434;2022-10-31T08:49:23;13.20;99.90
16663;DHT22;8445;51.270;9.434;2022-10-31T08:51:48;13.20;99.90
16663;DHT22;8445;51.270;9.434;2022-10-31T08:54:15;13.30;99.90
16663;DHT22;8445;51.270;9.434;2022-10-31T08:57:04;13.40;99.90
16663;DHT22;8445;51.270;9.434;2022-10-31T08:59:38;13.50;99.90
16663;DHT22;8445;51.270;9.434;2022-10-31T09:02:40;13.60;99.90
16663;DHT22;8445;51.270;9.434;2022-10-31T09:05:06;13.70;99.90
16663;DHT22;8445;51.270;9.434;2022-10-31T09:07:33;13.80;99.90
16663;DHT22;8445;51.270;9.434;2022-10-31T09:09:59;13.90;99.90
16663;DHT22;8445;51.270;9.434;2022-10-31T09:12:29;14.00;99.90
16663;DHT22;8445;51.270;9.434;2022-10-31T09:15:13;14.10;99.90
16663;DHT22;8445;51.270;9.434;2022-10-31T09:17:49;14.20;99.90
16663;DHT22;8445;51.270;9.434;2022-10-31T09:20:25;14.30;99.90
16663;DHT22;8445;51.270;9.434;2022-10-31T09:23:03;14.40;99.90
16663;DHT22;8445;51.270;9.434;2022-10-31T09:25:37;14.40;99.90
16663;DHT22;8445;51.270;9.434;2022-10-31T09:28:38;14.50;99.90
16663;DHT22;8445;51.270;9.434;2022-10-31T09:31:10;14.50;99.90
16663;DHT22;8445;51.270;9.434;2022-10-31T09:33:55;14.50;99.90
16663;DHT22;8445;51.270;9.434;2022-10-31T09:36:37;14.60;99.90
16663;DHT22;8445;51.270;9.434;2022-10-31T09:39:07;14.60;99.90
16663;DHT22;8445;51.270;9.434;2022-10-31T09:41:57;14.60;99.90
16663;DHT22;8445;51.270;9.434;2022-10-31T09:48:11;14.80;99.90
16663;DHT22;8445;51.270;9.434;2022-10-31T09:51:05;14.90;99.90
16663;DHT22;8445;51.270;9.434;2022-10-31T09:53:44;14.90;99.90
16663;DHT22;8445;51.270;9.434;2022-10-31T09:56:25;15.00;99.90
16663;DHT22;8445;51.270;9.434;2022-10-31T09:58:58;15.00;99.90
16663;DHT22;8445;51.270;9.434;2022-10-31T10:07:35;15.20;99.90
16663;DHT22;8445;51.270;9.434;2022-10-31T10:10:49;15.30;99.90
16663;DHT22;8445;51.270;9.434;2022-10-31T10:17:09;15.50;99.90
16663;DHT22;8445;51.270;9.434;2022-10-31T10:20:07;15.60;99.90
16663;DHT22;8445;51.270;9.434;2022-10-31T10:23:21;15.60;99.90
16663;DHT22;8445;51.270;9.434;2022-10-31T10:26:21;15.70;99.90
16663;DHT22;8445;51.270;9.434;2022-10-31T10:28:56;15.80;99.90
16663;DHT22;8445;51.270;9.434;2022-10-31T10:31:31;15.80;99.90
16663;DHT22;8445;51.270;9.434;2022-10-31T10:36:56;15.90;99.90
16663;DHT22;8445;51.270;9.434;2022-10-31T10:39:49;16.00;99.90
16663;DHT22;8445;51.270;9.434;2022-10-31T10:42:20;16.10;99.90
16663;DHT22;8445;51.270;9.434;2022-10-31T10:45:19;16.10;99.90
16663;DHT22;8445;51.270;9.434;2022-10-31T10:48:16;16.20;99.90
16663;DHT22;8445;51.270;9.434;2022-10-31T10:51:06;16.30;99.90
16663;DHT22;8445;51.270;9.434;2022-10-31T10:54:07;16.30;99.90
16663;DHT22;8445;51.270;9.434;2022-10-31T10:56:45;16.40;99.90
16663;DHT22;8445;51.270;9.434;2022-10-31T10:59:22;16.40;99.90
16663;DHT22;8445;51.270;9.434;2022-10-31T11:01:50;16.40;99.90
16663;DHT22;8445;51.270;9.434;2022-10-31T11:04:32;16.40;99.90
16663;DHT22;8445;51.270;9.434;2022-10-31T11:07:05;16.50;99.90
16663;DHT22;8445;51.270;9.434;2022-10-31T11:09:35;16.50;99.90
16663;DHT22;8445;51.270;9.434;2022-10-31T11:12:08;16.50;99.90
16663;DHT22;8445;51.270;9.434;2022-10-31T11:15:16;16.60;99.90
16663;DHT22;8445;51.270;9.434;2022-10-31T11:20:31;16.70;99.90
16663;DHT22;8445;51.270;9.434;2022-10-31T11:23:19;16.70;99.90
16663;DHT22;8445;51.270;9.434;2022-10-31T11:28:23;16.80;99.90
16663;DHT22;8445;51.270;9.434;2022-10-31T11:30:58;16.90;99.90
16663;DHT22;8445;51.270;9.434;2022-10-31T11:35:59;17.10;99.90
16663;DHT22;8445;51.270;9.434;2022-10-31T11:38:35;17.20;99.90
16663;DHT22;8445;51.270;9.434;2022-10-31T11:41:17;17.30;99.90
16663;DHT22;8445;51.270;9.434;2022-10-31T11:44:14;17.30;99.90
16663;DHT22;8445;51.270;9.434;2022-10-31T11:46:52;17.40;99.90
16663;DHT22;8445;51.270;9.434;2022-10-31T11:49:36;17.50;99.90
16663;DHT22;8445;51.270;9.434;2022-10-31T11:52:12;17.50;99.90
16663;DHT22;8445;51.270;9.434;2022-10-31T11:54:51;17.60;99.90
16663;DHT22;8445;51.270;9.434;2022-10-31T11:57:32;17.70;99.90
16663;DHT22;8445;51.270;9.434;2022-10-31T12:00:28;17.80;99.90
16663;DHT22;8445;51.270;9.434;2022-10-31T12:03:28;17.80;99.90
16663;DHT22;8445;51.270;9.434;2022-10-31T12:06:29;18.00;99.90
16663;DHT22;8445;51.270;9.434;2022-10-31T12:08:57;18.10;99.90
16663;DHT22;8445;51.270;9.434;2022-10-31T12:12:19;18.30;99.90
16663;DHT22;8445;51.270;9.434;2022-10-31T12:26:26;18.70;99.90
16663;DHT22;8445;51.270;9.434;2022-10-31T12:32:37;18.70;99.90
16663;DHT22;8445;51.270;9.434;2022-10-31T12:41:03;18.90;99.90
16663;DHT22;8445;51.270;9.434;2022-10-31T12:44:01;18.90;99.90
16663;DHT22;8445;51.270;9.434;2022-10-31T12:46:50;19.10;99.90
16663;DHT22;8445;51.270;9.434;2022-10-31T12:55:32;19.80;99.90
16663;DHT22;8445;51.270;9.434;2022-10-31T12:58:06;20.10;99.90
16663;DHT22;8445;51.270;9.434;2022-10-31T13:00:44;20.40;99.90
16663;DHT22;8445;51.270;9.434;2022-10-31T13:03:35;20.70;99.60
16663;DHT22;8445;51.270;9.434;2022-10-31T13:06:17;20.90;99.50
16663;DHT22;8445;51.270;9.434;2022-10-31T13:09:08;20.90;99.60
16663;DHT22;8445;51.270;9.434;2022-10-31T13:11:49;21.00;99.00
16663;DHT22;8445;51.270;9.434;2022-10-31T13:14:28;21.00;99.20
16663;DHT22;8445;51.270;9.434;2022-10-31T13:17:03;21.00;98.90
16663;DHT22;8445;51.270;9.434;2022-10-31T13:19:36;21.00;99.30
16663;DHT22;8445;51.270;9.434;2022-10-31T13:22:25;20.90;98.90
16663;DHT22;8445;51.270;9.434;2022-10-31T13:25:10;20.90;98.90
16663;DHT22;8445;51.270;9.434;2022-10-31T13:27:55;20.90;98.90
16663;DHT22;8445;51.270;9.434;2022-10-31T13:30:28;20.80;99.30
16663;DHT22;8445;51.270;9.434;2022-10-31T13:35:52;20.90;98.60
16663;DHT22;8445;51.270;9.434;2022-10-31T13:46:50;20.90;98.50
16663;DHT22;8445;51.270;9.434;2022-10-31T13:54:44;20.90;98.10
16663;DHT22;8445;51.270;9.434;2022-10-31T13:57:31;20.70;98.00
16663;DHT22;8445;51.270;9.434;2022-10-31T14:02:49;20.50;98.50
16663;DHT22;8445;51.270;9.434;2022-10-31T14:05:26;20.30;98.10
16663;DHT22;8445;51.270;9.434;2022-10-31T14:07:56;20.20;98.00
16663;DHT22;8445;51.270;9.434;2022-10-31T14:13:29;20.10;98.00
16663;DHT22;8445;51.270;9.434;2022-10-31T14:16:01;20.00;98.30
16663;DHT22;8445;51.270;9.434;2022-10-31T14:18:34;20.00;98.30
16663;DHT22;8445;51.270;9.434;2022-10-31T14:23:52;19.90;98.50
16663;DHT22;8445;51.270;9.434;2022-10-31T14:28:58;19.70;98.10
16663;DHT22;8445;51.270;9.434;2022-10-31T14:32:13;19.60;98.20
16663;DHT22;8445;51.270;9.434;2022-10-31T14:34:50;19.50;98.00
16663;DHT22;8445;51.270;9.434;2022-10-31T14:40:21;19.30;98.30
16663;DHT22;8445;51.270;9.434;2022-10-31T14:43:13;19.10;98.50
16663;DHT22;8445;51.270;9.434;2022-10-31T14:45:55;19.00;98.30
16663;DHT22;8445;51.270;9.434;2022-10-31T14:48:41;18.90;98.30
16663;DHT22;8445;51.270;9.434;2022-10-31T14:51:21;18.80;98.50
16663;DHT22;8445;51.270;9.434;2022-10-31T14:53:53;18.70;98.50
16663;DHT22;8445;51.270;9.434;2022-10-31T14:56:26;18.50;98.60
16663;DHT22;8445;51.270;9.434;2022-10-31T14:58:57;18.40;98.60
16663;DHT22;8445;51.270;9.434;2022-10-31T15:01:36;18.30;98.80
16663;DHT22;8445;51.270;9.434;2022-10-31T15:06:44;18.00;98.80
16663;DHT22;8445;51.270;9.434;2022-10-31T15:09:31;17.90;98.90
16663;DHT22;8445;51.270;9.434;2022-10-31T15:12:00;17.80;99.00
16663;DHT22;8445;51.270;9.434;2022-10-31T15:14:42;17.70;99.10
16663;DHT22;8445;51.270;9.434;2022-10-31T15:17:10;17.60;99.10
16663;DHT22;8445;51.270;9.434;2022-10-31T15:19:37;17.50;99.10
16663;DHT22;8445;51.270;9.434;2022-10-31T15:22:04;17.50;99.20
16663;DHT22;8445;51.270;9.434;2022-10-31T15:24:34;17.30;99.20
16663;DHT22;8445;51.270;9.434;2022-10-31T15:27:03;17.30;99.20
16663;DHT22;8445;51.270;9.434;2022-10-31T15:29:29;17.20;99.30
16663;DHT22;8445;51.270;9.434;2022-10-31T15:31:57;17.10;99.30
16663;DHT22;8445;51.270;9.434;2022-10-31T15:37:04;17.00;99.40
16663;DHT22;8445;51.270;9.434;2022-10-31T15:39:35;16.90;99.40
16663;DHT22;8445;51.270;9.434;2022-10-31T15:42:01;16.80;99.50
16663;DHT22;8445;51.270;9.434;2022-10-31T15:44:33;16.70;99.50
16663;DHT22;8445;51.270;9.434;2022-10-31T15:47:04;16.60;99.50
16663;DHT22;8445;51.270;9.434;2022-10-31T15:49:47;16.60;99.60
16663;DHT22;8445;51.270;9.434;2022-10-31T15:57:40;16.30;99.70
16663;DHT22;8445;51.270;9.434;2022-10-31T16:00:33;16.20;99.70
16663;DHT22;8445;51.270;9.434;2022-10-31T16:03:17;16.20;99.80
16663;DHT22;8445;51.270;9.434;2022-10-31T16:05:59;16.10;99.80
16663;DHT22;8445;51.270;9.434;2022-10-31T16:13:36;16.00;99.90
16663;DHT22;8445;51.270;9.434;2022-10-31T16:16:12;16.00;99.90
16663;DHT22;8445;51.270;9.434;2022-10-31T16:18:44;16.00;99.90
16663;DHT22;8445;51.270;9.434;2022-10-31T16:21:30;16.00;99.90
16663;DHT22;8445;51.270;9.434;2022-10-31T16:24:21;16.10;99.90
16663;DHT22;8445;51.270;9.434;2022-10-31T16:27:02;16.00;99.90
16663;DHT22;8445;51.270;9.434;2022-10-31T16:29:43;16.00;99.90
16663;DHT22;8445;51.270;9.434;2022-10-31T16:32:53;16.00;99.90
16663;DHT22;8445;51.270;9.434;2022-10-31T16:35:28;15.90;99.90
16663;DHT22;8445;51.270;9.434;2022-10-31T16:37:58;15.90;99.90
16663;DHT22;8445;51.270;9.434;2022-10-31T16:40:24;15.90;99.80
16663;DHT22;8445;51.270;9.434;2022-10-31T16:42:50;15.80;99.90
16663;DHT22;8445;51.270;9.434;2022-10-31T16:45:22;15.80;99.90
16663;DHT22;8445;51.270;9.434;2022-10-31T16:47:49;15.80;99.90
16663;DHT22;8445;51.270;9.434;2022-10-31T16:50:26;15.70;99.90
16663;DHT22;8445;51.270;9.434;2022-10-31T16:52:52;15.70;99.90
16663;DHT22;8445;51.270;9.434;2022-10-31T16:55:20;15.60;99.80
16663;DHT22;8445;51.270;9.434;2022-10-31T16:57:50;15.60;99.90
16663;DHT22;8445;51.270;9.434;2022-10-31T17:00:27;15.60;99.90
16663;DHT22;8445;51.270;9.434;2022-10-31T17:02:55;15.50;99.90
16663;DHT22;8445;51.270;9.434;2022-10-31T17:05:25;15.40;99.90
16663;DHT22;8445;51.270;9.434;2022-10-31T17:07:56;15.40;99.90
16663;DHT22;8445;51.270;9.434;2022-10-31T17:10:22;15.40;99.90
16663;DHT22;8445;51.270;9.434;2022-10-31T17:12:49;15.40;99.90
16663;DHT22;8445;51.270;9.434;2022-10-31T17:15:27;15.30;99.90
16663;DHT22;8445;51.270;9.434;2022-10-31T17:17:56;15.30;99.90
16663;DHT22;8445;51.270;9.434;2022-10-31T17:20:28;15.40;99.90
16663;DHT22;8445;51.270;9.434;2022-10-31T17:23:01;15.30;99.90
16663;DHT22;8445;51.270;9.434;2022-10-31T17:25:30;15.30;99.90
16663;DHT22;8445;51.270;9.434;2022-10-31T17:27:57;15.30;99.90
16663;DHT22;8445;51.270;9.434;2022-10-31T17:30:24;15.30;99.90
16663;DHT22;8445;51.270;9.434;2022-10-31T17:32:50;15.20;99.90
16663;DHT22;8445;51.270;9.434;2022-10-31T17:35:17;15.20;99.90
16663;DHT22;8445;51.270;9.434;2022-10-31T17:37:45;15.20;99.90
16663;DHT22;8445;51.270;9.434;2022-10-31T17:40:13;15.10;99.90
16663;DHT22;8445;51.270;9.434;2022-10-31T17:42:41;15.10;99.90
16663;DHT22;8445;51.270;9.434;2022-10-31T17:45:08;15.00;99.90
16663;DHT22;8445;51.270;9.434;2022-10-31T17:47:34;14.90;99.90
16663;DHT22;8445;51.270;9.434;2022-10-31T17:50:00;14.80;99.90
16663;DHT22;8445;51.270;9.434;2022-10-31T17:52:26;14.70;99.90
16663;DHT22;8445;51.270;9.434;2022-10-31T17:54:52;14.70;99.90
16663;DHT22;8445;51.270;9.434;2022-10-31T17:57:18;14.60;99.90
16663;DHT22;8445;51.270;9.434;2022-10-31T17:59:44;14.50;99.90
16663;DHT22;8445;51.270;9.434;2022-10-31T18:02:10;14.40;99.90
16663;DHT22;8445;51.270;9.434;2022-10-31T18:04:37;14.40;99.90
16663;DHT22;8445;51.270;9.434;2022-10-31T18:07:05;14.30;99.90
16663;DHT22;8445;51.270;9.434;2022-10-31T18:09:32;14.20;99.90
16663;DHT22;8445;51.270;9.434;2022-10-31T18:11:59;14.10;99.90
16663;DHT22;8445;51.270;9.434;2022-10-31T18:14:25;14.10;99.90
16663;DHT22;8445;51.270;9.434;2022-10-31T18:16:50;14.00;99.90
16663;DHT22;8445;51.270;9.434;2022-10-31T18:19:17;14.00;99.90
16663;DHT22;8445;51.270;9.434;2022-10-31T18:21:44;13.90;99.90
16663;DHT22;8445;51.270;9.434;2022-10-31T18:24:11;13.80;99.90
16663;DHT22;8445;51.270;9.434;2022-10-31T18:26:37;13.80;99.90
16663;DHT22;8445;51.270;9.434;2022-10-31T18:29:04;13.70;99.90
16663;DHT22;8445;51.270;9.434;2022-10-31T18:31:30;13.70;99.90
16663;DHT22;8445;51.270;9.434;2022-10-31T18:33:57;13.60;99.90
16663;DHT22;8445;51.270;9.434;2022-10-31T18:36:23;13.60;99.90
16663;DHT22;8445;51.270;9.434;2022-10-31T18:38:50;13.60;99.90
16663;DHT22;8445;51.270;9.434;2022-10-31T18:41:16;13.50;99.90
16663;DHT22;8445;51.270;9.434;2022-10-31T18:43:42;13.40;99.90
16663;DHT22;8445;51.270;9.434;2022-10-31T18:46:13;13.30;99.90
16663;DHT22;8445;51.270;9.434;2022-10-31T18:48:43;13.30;99.90